Time;durP1;ratioP1;P1;durP2;ratioP2;P2;SDS_P1;SDS_P2;PMS_P1;PMS_P2;Temp;Humidity;BMP_temperature;BMP_pressure;BME280_temperature;BME280_humidity;BME280_pressure;Samples;Min_cycle;Max_cycle;Signal;HPM_P1;HPM_P2
2022/11/30 00:01:10;;;;;;;42.77;15.43;;;;;;;;;;6159360;23;20171;-92
2022/11/30 00:04:17;;;;;;;41.93;15.17;;;;;;;;;;6156780;23;20225;-92
2022/11/30 00:07:23;;;;;;;49.20;16.03;;;;;;;;;;6174974;23;20164;-94
2022/11/30 00:10:28;;;;;;;46.03;16.63;;;;;;;;;;6174714;23;20236;-91
2022/11/30 00:13:34;;;;;;;38.87;15.17;;;;;;;;;;6175330;23;20205;-93
2022/11/30 00:16:42;;;;;;;43.27;16.13;;;;;;;;;;6174580;23;20177;-93
2022/11/30 00:19:47;;;;;;;40.13;15.77;;;;;;;;;;6174025;23;20180;-93
2022/11/30 00:22:52;;;;;;;43.63;16.33;;;;;;;;;;6157622;23;20164;-92
2022/11/30 00:26:00;;;;;;;42.40;15.63;;;;;;;;;;6156701;23;20205;-93
2022/11/30 00:29:05;;;;;;;46.60;15.47;;;;;;;;;;6156441;23;20244;-95
2022/11/30 00:32:13;;;;;;;43.40;16.60;;;;;;;;;;6173585;23;20168;-92
2022/11/30 00:35:18;;;;;;;44.90;16.57;;;;;;;;;;6157167;23;20160;-92
2022/11/30 00:38:28;;;;;;;53.63;18.87;;;;;;;;;;6174165;23;20190;-92
2022/11/30 00:41:33;;;;;;;46.83;18.77;;;;;;;;;;6157363;23;20165;-92
2022/11/30 00:44:39;;;;;;;42.33;16.53;;;;;;;;;;6173135;23;20193;-92
2022/11/30 00:51:39;;;;;;;41.43;15.30;;;;;;;;;;6155913;23;20205;-93
2022/11/30 00:54:44;;;;;;;40.57;15.10;;;;;;;;;;6154075;23;20168;-93
2022/11/30 00:57:49;;;;;;;41.50;16.30;;;;;;;;;;6171512;23;20152;-94
2022/11/30 01:00:55;;;;;;;36.20;14.10;;;;;;;;;;6170149;23;20241;-93
2022/11/30 01:04:00;;;;;;;38.97;15.63;;;;;;;;;;6170293;23;20169;-94
2022/11/30 01:07:07;;;;;;;37.50;14.47;;;;;;;;;;6158076;23;20216;-93
2022/11/30 01:10:12;;;;;;;41.67;15.20;;;;;;;;;;6155200;23;20199;-92
2022/11/30 01:13:18;;;;;;;44.13;16.53;;;;;;;;;;6154695;23;20237;-94
2022/11/30 01:16:24;;;;;;;44.73;16.87;;;;;;;;;;6172422;23;20241;-92
2022/11/30 01:19:34;;;;;;;39.67;14.90;;;;;;;;;;6155198;23;20213;-93
2022/11/30 04:30:14;;;;;;;36.90;15.17;;;;;;;;;;6163581;23;20212;-90
2022/11/30 04:33:19;;;;;;;42.60;15.20;;;;;;;;;;6212556;23;20162;-93
2022/11/30 04:36:24;;;;;;;36.33;14.87;;;;;;;;;;6209961;23;20175;-93
2022/11/30 04:39:30;;;;;;;36.60;13.93;;;;;;;;;;6212543;23;20163;-92
2022/11/30 04:42:34;;;;;;;38.40;14.70;;;;;;;;;;6209629;23;20171;-91
2022/11/30 04:45:41;;;;;;;45.77;15.90;;;;;;;;;;6210662;23;20155;-91
2022/11/30 04:48:46;;;;;;;43.27;16.30;;;;;;;;;;6211402;23;20621;-92
2022/11/30 04:51:52;;;;;;;42.63;15.90;;;;;;;;;;6210653;23;20237;-92
2022/11/30 04:54:58;;;;;;;42.73;15.53;;;;;;;;;;6211790;23;20155;-92
2022/11/30 04:58:03;;;;;;;42.03;16.07;;;;;;;;;;6213201;23;20183;-90
2022/11/30 05:01:09;;;;;;;45.33;16.53;;;;;;;;;;6212424;23;20171;-92
2022/11/30 05:04:21;;;;;;;44.80;17.17;;;;;;;;;;6212542;23;20195;-91
2022/11/30 05:07:27;;;;;;;38.57;14.87;;;;;;;;;;6214080;23;20234;-91
2022/11/30 05:10:32;;;;;;;44.10;17.10;;;;;;;;;;6213528;23;20199;-92
2022/11/30 05:13:38;;;;;;;43.13;16.00;;;;;;;;;;6214128;23;20151;-92
2022/11/30 05:16:44;;;;;;;42.13;16.43;;;;;;;;;;6213100;23;20170;-94
2022/11/30 05:19:50;;;;;;;48.87;17.73;;;;;;;;;;6212564;23;20443;-93
2022/11/30 05:22:55;;;;;;;46.70;18.10;;;;;;;;;;6212426;23;20187;-92
2022/11/30 05:26:02;;;;;;;51.53;19.03;;;;;;;;;;6213306;23;20190;-93
2022/11/30 05:29:08;;;;;;;51.50;18.67;;;;;;;;;;6213108;23;20207;-93
2022/11/30 05:32:15;;;;;;;47.07;17.37;;;;;;;;;;6211889;23;20234;-91
2022/11/30 05:35:20;;;;;;;50.00;17.27;;;;;;;;;;6211276;23;20186;-94
2022/11/30 05:38:26;;;;;;;47.23;18.73;;;;;;;;;;6213457;23;20170;-94
2022/11/30 05:41:32;;;;;;;50.23;18.63;;;;;;;;;;6213870;23;20210;-91
2022/11/30 05:44:37;;;;;;;46.77;16.83;;;;;;;;;;6212435;23;20175;-93
2022/11/30 05:47:44;;;;;;;54.07;18.00;;;;;;;;;;6214448;23;20155;-93
2022/11/30 05:50:49;;;;;;;48.90;17.47;;;;;;;;;;6213319;23;20198;-93
2022/11/30 05:53:55;;;;;;;52.07;18.33;;;;;;;;;;6211201;23;20335;-93
2022/11/30 05:57:00;;;;;;;44.90;17.83;;;;;;;;;;6212482;23;20207;-93
2022/11/30 06:00:06;;;;;;;45.47;17.17;;;;;;;;;;6211097;23;20187;-91
2022/11/30 06:03:34;;;;;;;45.90;16.10;;;;;;;;;;6233203;23;20167;-92
2022/11/30 06:06:41;;;;;;;55.80;17.30;;;;;;;;;;6214993;23;20179;-92
2022/11/30 06:09:47;;;;;;;49.80;18.13;;;;;;;;;;6214526;23;20527;-92
2022/11/30 06:12:53;;;;;;;47.10;17.27;;;;;;;;;;6213622;23;20176;-91
2022/11/30 06:15:59;;;;;;;55.80;18.70;;;;;;;;;;6213728;23;20154;-90
2022/11/30 06:19:06;;;;;;;47.50;17.20;;;;;;;;;;6216419;23;20183;-92
2022/11/30 06:22:13;;;;;;;49.17;16.63;;;;;;;;;;6214888;23;20163;-93
2022/11/30 06:25:19;;;;;;;50.77;16.97;;;;;;;;;;6214366;23;20170;-91
2022/11/30 06:28:25;;;;;;;46.20;16.80;;;;;;;;;;6212080;23;20151;-91
2022/11/30 06:31:31;;;;;;;43.07;17.03;;;;;;;;;;6214267;23;20206;-93
2022/11/30 06:34:38;;;;;;;41.00;16.07;;;;;;;;;;6216119;23;20170;-92
2022/11/30 06:37:46;;;;;;;44.13;18.13;;;;;;;;;;6216538;23;20202;-90
2022/11/30 06:40:52;;;;;;;38.40;15.60;;;;;;;;;;6216474;23;20222;-92
2022/11/30 06:44:00;;;;;;;50.53;17.30;;;;;;;;;;6214315;23;20171;-91
2022/11/30 06:47:24;;;;;;;45.13;16.20;;;;;;;;;;6213147;23;20171;-92
2022/11/30 06:50:30;;;;;;;40.97;16.37;;;;;;;;;;6216053;23;20195;-92
2022/11/30 06:53:39;;;;;;;35.80;14.67;;;;;;;;;;6216605;23;20163;-91
2022/11/30 06:56:44;;;;;;;36.60;15.77;;;;;;;;;;6215515;23;20162;-92
2022/11/30 06:59:49;;;;;;;35.33;13.80;;;;;;;;;;6214531;23;20167;-91
2022/11/30 07:02:55;;;;;;;35.70;14.43;;;;;;;;;;6216617;23;20323;-91
2022/11/30 07:09:22;;;;;;;43.10;17.27;;;;;;;;;;6214608;23;20214;-92
2022/11/30 07:12:27;;;;;;;43.20;15.83;;;;;;;;;;6213922;23;20171;-93
2022/11/30 07:15:33;;;;;;;40.23;15.27;;;;;;;;;;6212812;23;20190;-92
2022/11/30 07:21:58;;;;;;;38.60;16.27;;;;;;;;;;6214857;23;20244;-91
2022/11/30 07:28:35;;;;;;;41.97;16.53;;;;;;;;;;6212435;23;20183;-91
2022/11/30 07:31:40;;;;;;;49.50;18.63;;;;;;;;;;6205735;23;20252;-90
2022/11/30 07:34:46;;;;;;;39.47;15.30;;;;;;;;;;6183546;23;20239;-92
2022/11/30 07:37:50;;;;;;;40.27;15.43;;;;;;;;;;6152286;23;20236;-91
2022/11/30 07:40:58;;;;;;;41.13;16.43;;;;;;;;;;6168876;23;20176;-93
2022/11/30 07:44:05;;;;;;;42.10;16.37;;;;;;;;;;6169356;23;20177;-91
2022/11/30 07:47:37;;;;;;;44.57;17.03;;;;;;;;;;6167276;23;20172;-91
2022/11/30 07:50:42;;;;;;;49.93;18.40;;;;;;;;;;6171878;23;20331;-90
2022/11/30 07:53:48;;;;;;;46.60;18.23;;;;;;;;;;6170600;23;20169;-91
2022/11/30 07:56:56;;;;;;;48.27;18.03;;;;;;;;;;6172738;23;20159;-91
2022/11/30 08:00:02;;;;;;;48.50;18.43;;;;;;;;;;6172751;23;20212;-91
2022/11/30 08:03:17;;;;;;;49.60;18.93;;;;;;;;;;6174483;23;20164;-91
2022/11/30 08:06:23;;;;;;;49.83;18.30;;;;;;;;;;6172030;23;20164;-92
2022/11/30 18:11:58;;;;;;;49.40;19.30;;;;;;;;;;6115357;23;1634040;-93
2022/11/30 18:15:04;;;;;;;59.17;20.30;;;;;;;;;;6185230;23;20461;-91
2022/11/30 18:18:09;;;;;;;61.70;23.57;;;;;;;;;;6184511;23;20235;-89
2022/11/30 18:21:16;;;;;;;60.83;22.20;;;;;;;;;;6184795;23;20176;-92
2022/11/30 18:24:22;;;;;;;58.90;21.30;;;;;;;;;;6185572;23;20160;-93
2022/11/30 18:27:29;;;;;;;65.87;22.53;;;;;;;;;;6187559;23;20218;-93
2022/11/30 18:30:35;;;;;;;64.40;22.37;;;;;;;;;;6187447;23;20242;-91
2022/11/30 18:33:41;;;;;;;63.73;22.23;;;;;;;;;;6187942;23;20164;-90
2022/11/30 18:36:51;;;;;;;58.90;22.83;;;;;;;;;;6187860;23;20159;-93
2022/11/30 18:43:29;;;;;;;63.43;23.80;;;;;;;;;;6207969;23;20168;-93
2022/11/30 18:46:37;;;;;;;65.43;25.27;;;;;;;;;;6189055;23;20164;-91
2022/11/30 18:49:43;;;;;;;63.53;24.27;;;;;;;;;;6189100;23;20219;-92
2022/11/30 18:52:49;;;;;;;61.73;24.67;;;;;;;;;;6188397;23;20175;-92
2022/11/30 18:55:55;;;;;;;64.73;24.60;;;;;;;;;;6188345;23;20162;-91
